ADDS METAR Data INFO
IDs: Format: Raw Decoded Include TAF

Data at: 2225 UTC 22 Aug 2017

KARM 222215Z AUTO 15009KT 10SM CLR 34/20 A2998 RMK AO2 T03360201
KARM 222155Z AUTO 13010KT 10SM CLR 34/20 A2999 RMK AO2 LTG DSNT NE T03370202
KARM 222135Z AUTO 12009KT 10SM CLR 34/20 A2999 RMK AO2 T03360196
KARM 222115Z AUTO 11005KT 10SM SCT065 SCT070 SCT080 34/19 A2999 RMK AO2 T03420189
KARM 222055Z AUTO 14005KT 10SM SCT055 35/16 A3000 RMK AO2 T03470164
KARM 222035Z AUTO 16004KT 10SM SCT055 35/17 A3001 RMK AO2 T03450172
KARM 222015Z AUTO 12006KT 10SM SCT055 34/18 A3002 RMK AO2 T03410184
KARM 221955Z AUTO 13006KT 10SM SCT050 SCT065 34/20 A3002 RMK AO2 T03400196
KARM 221935Z AUTO 00000KT 10SM SCT050 34/18 A3003 RMK AO2 T03370183
KARM 221915Z AUTO 00000KT 10SM SCT050 34/18 A3004 RMK AO2 T03380180
KARM 221855Z AUTO 00000KT 10SM SCT050 33/19 A3005 RMK AO2 T03250188
KARM 221835Z AUTO 00000KT 10SM SCT065 34/18 A3005 RMK AO2 T03350182
KARM 221815Z AUTO 11004KT 10SM CLR 33/19 A3006 RMK AO2 T03320192
KARM 221755Z AUTO 00000KT 10SM SCT041 SCT050 33/20 A3006 RMK AO2 T03300195 10331 20220
KARM 221735Z AUTO 00000KT 10SM SCT041 SCT050 32/21 A3007 RMK AO2 T03240205
KARM 221715Z AUTO 00000KT 10SM CLR 32/20 A3008 RMK AO2 T03200198
KARM 221655Z AUTO 06004KT 10SM CLR 32/20 A3008 RMK AO2 T03190203
KARM 221635Z AUTO 00000KT 10SM CLR 32/20 A3008 RMK AO2 T03150201
KARM 221615Z AUTO 33003KT 10SM SCT031 31/21 A3008 RMK AO2 T03120213
KARM 221555Z AUTO 00000KT 10SM SCT027 BKN034 30/22 A3008 RMK AO2 T03030218
KARM 221535Z AUTO 00000KT 10SM SCT025 29/22 A3008 RMK AO2 T02940222
KARM 221515Z AUTO 00000KT 10SM CLR 29/23 A3008 RMK AO2 T02930233
KARM 221455Z AUTO 00000KT 10SM CLR 29/24 A3007 RMK AO2 T02890238
KARM 221435Z AUTO 00000KT 10SM CLR 28/24 A3007 RMK AO2 T02780237
KARM 221415Z AUTO 00000KT 10SM CLR 27/24 A3007 RMK AO2 T02690244
KARM 221355Z AUTO 00000KT 10SM CLR 26/25 A3007 RMK AO2 T02600246
KARM 221335Z AUTO 00000KT 10SM CLR 25/24 A3006 RMK AO2 T02500241
KARM 221315Z AUTO 00000KT 10SM CLR 24/24 A3006 RMK AO2 T02410235
KARM 221255Z AUTO 00000KT 7SM CLR 23/23 A3005 RMK AO2 T02320225
KARM 221235Z AUTO 00000KT 5SM BR CLR 23/22 A3004 RMK AO2 T02250218
KARM 221215Z AUTO 00000KT 1 1/2SM BR VV007 22/22 A3004 RMK AO2 T02230215
KARM 221155Z AUTO 00000KT 7SM CLR 22/21 A3003 RMK AO2 T02200212 10247 20220
KARM 221135Z AUTO 00000KT 4SM BR CLR 22/21 A3003 RMK AO2 T02200212
KARM 221115Z AUTO 00000KT 5SM BR CLR 22/21 A3003 RMK AO2 T02210213
KARM 221055Z AUTO 00000KT 5SM BR CLR 22/21 A3003 RMK AO2 T02220213
KARM 221035Z AUTO 00000KT 5SM BR CLR 22/22 A3002 RMK AO2 T02230215
KARM 221015Z AUTO 00000KT 7SM CLR 22/21 A3002 RMK AO2 T02200210
KARM 220955Z AUTO 00000KT 7SM CLR 23/22 A3003 RMK AO2 T02250215
KARM 220935Z AUTO 00000KT 5SM BR CLR 23/22 A3003 RMK AO2 T02250215
KARM 220915Z AUTO 00000KT 7SM CLR 23/21 A3003 RMK AO2 T02250213
KARM 220855Z AUTO 00000KT 7SM CLR 23/21 A3003 RMK AO2 T02250211
KARM 220835Z AUTO 00000KT 7SM CLR 23/22 A3004 RMK AO2 T02300216
KARM 220815Z AUTO 00000KT 10SM CLR 23/22 A3004 RMK AO2 T02330220
KARM 220755Z AUTO 00000KT 10SM CLR 23/21 A3004 RMK AO2 T02280214
KARM 220735Z AUTO 00000KT 10SM CLR 23/22 A3005 RMK AO2 T02340219
KARM 220715Z AUTO 00000KT 10SM CLR 24/22 A3006 RMK AO2 T02360220
KARM 220655Z AUTO 00000KT 10SM CLR 24/22 A3006 RMK AO2 T02410222
KARM 220635Z AUTO 00000KT 10SM CLR 25/23 A3007 RMK AO2 T02450226
KARM 220615Z AUTO 00000KT 10SM CLR 25/23 A3008 RMK AO2 T02450226
KARM 220555Z AUTO 00000KT 10SM CLR 24/22 A3008 RMK AO2 T02430222 10312 20243 403400228
KARM 220535Z AUTO 00000KT 10SM CLR 25/22 A3008 RMK AO2 T02460223
KARM 220515Z AUTO 00000KT 10SM CLR 25/23 A3008 RMK AO2 T02500225
KARM 220455Z AUTO 11004KT 10SM CLR 25/23 A3009 RMK AO2 T02500225
KARM 220435Z AUTO 11003KT 10SM CLR 25/23 A3009 RMK AO2 T02500226
KARM 220415Z AUTO 11003KT 10SM CLR 25/23 A3008 RMK AO2 T02520227
KARM 220355Z AUTO 00000KT 10SM CLR 25/23 A3009 RMK AO2 T02530226
KARM 220335Z AUTO 11003KT 10SM CLR 26/23 A3008 RMK AO2 T02560229
KARM 220315Z AUTO 00000KT 10SM CLR 26/23 A3008 RMK AO2 T02600230
KARM 220255Z AUTO 11004KT 10SM CLR 26/23 A3008 RMK AO2 T02600230
KARM 220235Z AUTO 13004KT 10SM CLR 26/23 A3006 RMK AO2 T02600229
KARM 220215Z AUTO 13004KT 10SM CLR 27/23 A3006 RMK AO2 T02650228
KARM 220155Z AUTO 13004KT 10SM CLR 27/23 A3006 RMK AO2 T02700227
KARM 220135Z AUTO 13005KT 10SM CLR 28/23 A3005 RMK AO2 T02750225
KARM 220115Z AUTO 14006KT 10SM CLR 28/22 A3004 RMK AO2 T02800223
KARM 220055Z AUTO 14007KT 10SM CLR 29/22 A3003 RMK AO2 T02900219
KARM 220035Z AUTO 14009KT 10SM CLR 30/22 A3003 RMK AO2 T02970218
KARM 220015Z AUTO 13009KT 10SM CLR 31/22 A3002 RMK AO2 T03060217
KARM 212355Z AUTO 14008KT 10SM CLR 31/22 A3002 RMK AO2 T03120215 10340 20307
KARM 212335Z AUTO 14008KT 10SM CLR 32/22 A3002 RMK AO2 T03150216
KARM 212315Z AUTO 12008KT 10SM SCT070 SCT080 SCT100 32/22 A3001 RMK AO2 T03150218
KARM 212255Z AUTO 13011KT 10SM SCT070 SCT080 SCT100 33/21 A3001 RMK AO2 T03290212
KARM 212235Z AUTO 13010KT 10SM SCT047 SCT060 SCT070 33/21 A3001 RMK AO2 T03320205
KARM 212215Z AUTO 14009KT 10SM SCT045 SCT060 SCT070 34/21 A3001 RMK AO2 T03360205
KARM 212155Z AUTO 13007KT 10SM SCT043 SCT049 33/21 A3002 RMK AO2 T03340207
KARM 212135Z AUTO 13008KT 10SM SCT041 SCT049 SCT065 33/21 A3002 RMK AO2 T03280211
KARM 212115Z AUTO 14007KT 10SM CLR 33/22 A3002 RMK AO2 T03310219
KARM 212055Z AUTO 14005KT 10SM SCT055 SCT100 31/23 A3003 RMK AO2 LTG DSNT W T03100226
KARM 212035Z AUTO 10008KT 10SM SCT045 SCT060 SCT070 33/22 A3003 RMK AO2 T03330221
KARM 212015Z AUTO 11009KT 10SM SCT045 SCT060 SCT070 34/22 A3003 RMK AO2 T03350215
KARM 211955Z AUTO 14006KT 10SM SCT047 SCT060 SCT070 34/21 A3003 RMK AO2 T03350211
KARM 211935Z AUTO 14006KT 10SM SCT047 SCT070 33/21 A3004 RMK AO2 LTG DSNT N T03340206
KARM 211915Z AUTO 14006KT 10SM SCT085 33/21 A3004 RMK AO2 T03280206
KARM 211855Z AUTO 10003KT 10SM SCT085 32/21 A3005 RMK AO2 T03210213
KARM 211835Z AUTO 15005KT 10SM CLR 32/21 A3005 RMK AO2 T03190205
KARM 211815Z AUTO 13004KT 10SM CLR 32/20 A3006 RMK AO2 T03200204
KARM 211755Z AUTO 09004KT 10SM CLR 32/20 A3006 RMK AO2 T03220197 10327 20234
KARM 211735Z AUTO 00000KT 10SM CLR 33/20 A3006 RMK AO2 T03260198
KARM 211715Z AUTO 15007KT 10SM CLR 33/20 A3007 RMK AO2 T03260204
KARM 211655Z AUTO 00000KT 10SM SCT043 32/20 A3008 RMK AO2 T03230200
KARM 211635Z AUTO 00000KT 10SM SCT035 SCT041 32/22 A3008 RMK AO2 T03170216
KARM 211615Z AUTO 00000KT 10SM SCT033 SCT039 31/22 A3008 RMK AO2 T03130220
KARM 211555Z AUTO 16004KT 10SM SCT032 31/22 A3008 RMK AO2 T03100223
KARM 211535Z AUTO 10004KT 10SM SCT026 SCT037 31/23 A3008 RMK AO2 T03070226
KARM 211515Z AUTO 13003KT 10SM SCT026 BKN037 30/24 A3008 RMK AO2 T02950235
KARM 211455Z AUTO 09004KT 10SM SCT024 30/24 A3008 RMK AO2 T02980236
KARM 211435Z AUTO 10003KT 10SM CLR 29/24 A3007 RMK AO2 T02920243
KARM 211415Z AUTO 00000KT 10SM CLR 28/25 A3007 RMK AO2 T02830246
KARM 211355Z AUTO 00000KT 10SM CLR 27/25 A3006 RMK AO2 T02720246
KARM 211335Z AUTO 00000KT 10SM CLR 26/25 A3006 RMK AO2 T02620247
KARM 211315Z AUTO 00000KT 10SM SCT025 SCT031 SCT040 25/24 A3006 RMK AO2 T02520242
KARM 211255Z AUTO 00000KT 7SM SCT025 SCT033 24/23 A3006 RMK AO2 T02440234
KARM 211235Z AUTO 00000KT 5SM BR SCT026 24/23 A3005 RMK AO2 T02390229
KARM 211215Z AUTO 00000KT 5SM BR CLR 24/23 A3005 RMK AO2 T02350225
KARM 211155Z AUTO 00000KT 7SM SCT025 SCT029 SCT036 23/22 A3005 RMK AO2 70031 T02330223 10242 20228
KARM 211135Z AUTO 00000KT 5SM BR SCT025 23/22 A3005 RMK AO2 T02320222
KARM 211115Z AUTO 00000KT 5SM BR CLR 23/22 A3005 RMK AO2 T02300219
KARM 211055Z AUTO 00000KT 5SM BR CLR 23/22 A3004 RMK AO2 T02310220
KARM 211035Z AUTO 00000KT 5SM BR CLR 23/22 A3004 RMK AO2 T02300220